31.9°F
Current conditions from King Hill
Updated every 5 minutes
 
  Friday April 25, 2014

Station Historical Data
Daily Summary for July 20, 2012 Units:  Metric    English   Both
« Previous Day
Next Day »
Daily Weekly Monthly Yearly Custom
  High: Low: Average:
Temperature: 25.2 °C 8.3 °C 16.8 °C
Dew Point: 14.7 °C 7.2 °C 10.4 °C
Humidity: 95% 37% 70%
Wind Speed: 9.7km/h 0km/h 4.2km/h
Wind Gust: 20.9km/h - -
Wind- - SW
Pressure: 1018.5 hPa 1015.8 hPa -
Precipitation: 0 mm    
Historical Graphs
 
 
Tabular Data for July 20, 2012
Time Temperature Dew Point Pressure Wind Wind Speed Wind Gust Humidity Daily Rainfall
00:04 9.9 °C 8.6 °C 1017.2 hPa Calm     91% 0 mm
00:09 9.9 °C 8.5 °C 1016.8 hPa Calm     91% 0 mm
00:14 9.8 °C 8.4 °C 1017.2 hPa Calm     91% 0 mm
00:19 9.7 °C 8.3 °C 1017.2 hPa Calm     91% 0 mm
00:24 9.6 °C 8.2 °C 1017.2 hPa Calm     91% 0 mm
00:34 9.6 °C 8.2 °C 1017.2 hPa Calm     91% 0 mm
00:39 9.6 °C 8.2 °C 1017.2 hPa Calm     91% 0 mm
00:44 9.7 °C 8.4 °C 1017.2 hPa Calm     92% 0 mm
00:49 10.1 °C 9 °C 1017.2 hPa Calm     93% 0 mm
00:54 10.2 °C 9.3 °C 1017.2 hPa Calm     94% 0 mm
00:59 10.1 °C 9.1 °C 1017.2 hPa Calm     93% 0 mm
01:04 9.9 °C 8.9 °C 1017.2 hPa Calm     93% 0 mm
01:09 9.8 °C 8.7 °C 1017.2 hPa Calm     93% 0 mm
01:14 9.7 °C 8.6 °C 1017.2 hPa Calm     93% 0 mm
01:19 9.6 °C 8.6 °C 1017.2 hPa Calm     93% 0 mm
01:29 9.6 °C 8.5 °C 1017.2 hPa Calm     93% 0 mm
01:34 9.5 °C 8.4 °C 1017.2 hPa Calm     93% 0 mm
01:39 9.4 °C 8.3 °C 1016.8 hPa Calm     93% 0 mm
01:44 9.3 °C 8.3 °C 1017.2 hPa Calm     93% 0 mm
01:49 9.3 °C 8.3 °C 1017.2 hPa Calm     93% 0 mm
01:54 9.3 °C 8.2 °C 1017.2 hPa Calm     93% 0 mm
01:59 9.2 °C 8.1 °C 1017.2 hPa Calm     93% 0 mm
02:04 9.2 °C 8.1 °C 1017.2 hPa Calm     93% 0 mm
02:09 9.1 °C 8.1 °C 1017.2 hPa Calm     93% 0 mm
02:14 9 °C 7.9 °C 1017.2 hPa Calm     93% 0 mm
02:19 8.9 °C 7.8 °C 1016.8 hPa Calm     93% 0 mm
02:24 8.9 °C 7.9 °C 1016.8 hPa Calm     93% 0 mm
02:29 8.9 °C 7.9 °C 1016.8 hPa Calm     93% 0 mm
02:34 8.9 °C 7.9 °C 1016.8 hPa Calm     93% 0 mm
02:44 9 °C 8.1 °C 1016.8 hPa Calm     94% 0 mm
02:49 9 °C 8.1 °C 1016.8 hPa Calm     94% 0 mm
02:54 9.2 °C 8.3 °C 1016.8 hPa Calm     94% 0 mm
02:59 9.3 °C 8.4 °C 1016.8 hPa Calm     94% 0 mm
03:04 9.3 °C 8.4 °C 1016.8 hPa Calm     94% 0 mm
03:09 9.6 °C 8.8 °C 1016.8 hPa Calm   1.6 km/h 95% 0 mm
03:14 9.9 °C 9.1 °C 1016.8 hPa Calm   1.6 km/h 95% 0 mm
03:19 10.1 °C 9.3 °C 1016.8 hPa Calm     95% 0 mm
03:24 10.2 °C 9.4 °C 1016.8 hPa Calm     95% 0 mm
03:29 10.2 °C 9.4 °C 1016.5 hPa Calm   3.2 km/h 95% 0 mm
03:34 10.1 °C 9.3 °C 1016.5 hPa Calm   3.2 km/h 95% 0 mm
03:39 10.1 °C 9.1 °C 1016.8 hPa Calm   1.6 km/h 94% 0 mm
03:44 9.9 °C 9 °C 1016.8 hPa Calm     94% 0 mm
03:49 9.8 °C 8.8 °C 1016.5 hPa Calm     94% 0 mm
03:54 9.6 °C 8.6 °C 1016.5 hPa Calm     94% 0 mm
03:59 9.6 °C 8.6 °C 1016.5 hPa Calm     94% 0 mm
04:04 9.7 °C 8.7 °C 1016.5 hPa Calm     94% 0 mm
04:09 9.7 °C 8.7 °C 1016.8 hPa Calm     94% 0 mm
04:14 9.6 °C 8.6 °C 1016.8 hPa Calm     94% 0 mm
04:19 9.4 °C 8.5 °C 1016.8 hPa Calm     94% 0 mm
04:24 9.6 °C 8.6 °C 1016.8 hPa Calm     94% 0 mm
04:29 9.5 °C 8.6 °C 1016.8 hPa Calm     94% 0 mm
04:34 9.5 °C 8.6 °C 1016.8 hPa Calm     94% 0 mm
04:39 9.5 °C 8.6 °C 1017.2 hPa Calm     94% 0 mm
04:44 9.3 °C 8.2 °C 1017.2 hPa Calm     93% 0 mm
04:49 8.9 °C 7.9 °C 1017.2 hPa Calm     93% 0 mm
04:54 8.7 °C 7.6 °C 1017.2 hPa Calm     93% 0 mm
05:04 8.3 °C 7.3 °C 1017.2 hPa Calm     93% 0 mm
05:09 8.3 °C 7.2 °C 1017.2 hPa Calm   1.6 km/h 93% 0 mm
05:14 8.4 °C 7.5 °C 1017.2 hPa Calm   1.6 km/h 94% 0 mm
05:19 8.9 °C 8 °C 1017.2 hPa Calm   1.6 km/h 94% 0 mm
05:24 9.1 °C 8.2 °C 1017.2 hPa Calm     94% 0 mm
05:29 9.3 °C 8.4 °C 1017.2 hPa Calm     94% 0 mm
05:34 9.4 °C 8.5 °C 1017.2 hPa Calm     94% 0 mm
05:39 9 °C 8.1 °C 1017.2 hPa Calm     94% 0 mm
05:44 8.8 °C 7.9 °C 1017.2 hPa Calm     94% 0 mm
05:49 8.6 °C 7.7 °C 1017.2 hPa Calm     94% 0 mm
05:54 8.4 °C 7.6 °C 1017.2 hPa Calm     94% 0 mm
05:59 8.4 °C 7.5 °C 1017.2 hPa Calm     94% 0 mm
06:04 8.4 °C 7.5 °C 1017.2 hPa Calm     94% 0 mm
06:09 8.4 °C 7.5 °C 1017.2 hPa Calm     94% 0 mm
06:14 8.3 °C 7.4 °C 1017.2 hPa Calm     94% 0 mm
06:19 8.4 °C 7.5 °C 1017.5 hPa Calm     94% 0 mm
06:24 8.9 °C 8.2 °C 1017.5 hPa Calm     95% 0 mm
06:29 9.4 °C 8.6 °C 1017.5 hPa Calm   1.6 km/h 95% 0 mm
06:34 9.6 °C 8.8 °C 1017.5 hPa Calm   1.6 km/h 95% 0 mm
06:39 9.8 °C 9 °C 1017.5 hPa Calm     95% 0 mm
06:44 9.9 °C 9.2 °C 1017.5 hPa Calm     95% 0 mm
06:49 10 °C 9.2 °C 1017.5 hPa Calm   1.6 km/h 95% 0 mm
06:54 9.9 °C 9.2 °C 1017.5 hPa Calm   1.6 km/h 95% 0 mm
06:59 10.1 °C 9.3 °C 1017.5 hPa Calm     95% 0 mm
07:04 10.1 °C 9.3 °C 1017.5 hPa Calm     95% 0 mm
07:09 10.3 °C 9.5 °C 1017.5 hPa Calm     95% 0 mm
07:14 10.6 °C 9.8 °C 1017.5 hPa Calm     95% 0 mm
07:19 10.8 °C 10.1 °C 1017.5 hPa Calm   1.6 km/h 95% 0 mm
07:24 11.2 °C 10.4 °C 1017.8 hPa Calm   1.6 km/h 95% 0 mm
07:29 11.6 °C 10.8 °C 1017.8 hPa Calm     95% 0 mm
07:34 11.7 °C 10.9 °C 1017.8 hPa Calm     95% 0 mm
07:39 11.8 °C 11.1 °C 1017.8 hPa Calm   1.6 km/h 95% 0 mm
07:44 11.9 °C 11.2 °C 1017.8 hPa Calm   1.6 km/h 95% 0 mm
07:49 12.2 °C 11.4 °C 1017.8 hPa Calm     95% 0 mm
07:54 12.4 °C 11.7 °C 1017.8 hPa Calm     95% 0 mm
07:59 12.7 °C 11.7 °C 1018.2 hPa Calm   1.6 km/h 94% 0 mm
08:04 12.9 °C 11.6 °C 1018.2 hPa Calm   1.6 km/h 92% 0 mm
08:09 13.3 °C 11.6 °C 1018.2 hPa East 1.6 km/h 8 km/h 89% 0 mm
08:14 13.9 °C 11.4 °C 1018.2 hPa Calm   8 km/h 85% 0 mm
08:19 14.6 °C 11.8 °C 1018.2 hPa Calm   1.6 km/h 83% 0 mm
08:24 15.1 °C 11.8 °C 1018.2 hPa Calm   1.6 km/h 81% 0 mm
08:29 15.7 °C 12.1 °C 1018.2 hPa Calm     79% 0 mm
08:34 16.2 °C 12.1 °C 1018.2 hPa Calm   4.8 km/h 77% 0 mm
08:39 16.7 °C 12.5 °C 1018.2 hPa Calm   4.8 km/h 76% 0 mm
08:44 17.2 °C 12.1 °C 1018.5 hPa Calm   1.6 km/h 72% 0 mm
08:49 17.6 °C 11.8 °C 1018.2 hPa Calm   1.6 km/h 69% 0 mm
08:54 17.8 °C 11.6 °C 1018.2 hPa ESE 1.6 km/h 4.8 km/h 67% 0 mm
08:59 18.2 °C 12.4 °C 1018.2 hPa Calm   4.8 km/h 69% 0 mm
09:04 18.3 °C 11.4 °C 1018.2 hPa NNE 1.6 km/h 6.4 km/h 64% 0 mm
09:09 18.2 °C 11.6 °C 1018.5 hPa NNE 1.6 km/h 6.4 km/h 65% 0 mm
09:14 18.4 °C 11.7 °C 1018.5 hPa Calm   4.8 km/h 65% 0 mm
09:19 18.7 °C 12.7 °C 1018.5 hPa Calm   1.6 km/h 68% 0 mm
09:24 19.2 °C 11.7 °C 1018.5 hPa Calm   6.4 km/h 62% 0 mm
09:29 19.3 °C 11.8 °C 1018.5 hPa Calm   6.4 km/h 62% 0 mm
09:34 19.6 °C 11.6 °C 1018.5 hPa Calm     60% 0 mm
09:39 19.7 °C 10.7 °C 1018.5 hPa Calm   1.6 km/h 56% 0 mm
09:44 19.7 °C 11.2 °C 1018.5 hPa NE 1.6 km/h 8 km/h 58% 0 mm
09:49 19.7 °C 11.2 °C 1018.5 hPa Calm   8 km/h 58% 0 mm
09:54 19.7 °C 11.4 °C 1018.5 hPa Calm   8 km/h 59% 0 mm
09:59 19.8 °C 11.8 °C 1018.2 hPa Calm   8 km/h 60% 0 mm
10:04 20.2 °C 11.4 °C 1018.5 hPa Calm   8 km/h 57% 0 mm
10:09 20.4 °C 11.9 °C 1018.2 hPa Calm   8 km/h 58% 0 mm
10:14 20.7 °C 11.4 °C 1018.2 hPa Calm   6.4 km/h 55% 0 mm
10:19 20.9 °C 10.2 °C 1018.2 hPa Calm   1.6 km/h 50% 0 mm
10:24 21.1 °C 9.9 °C 1018.2 hPa Calm   1.6 km/h 49% 0 mm
10:29 21.1 °C 11.2 °C 1018.2 hPa Calm     53% 0 mm
10:34 21.4 °C 10.9 °C 1018.2 hPa Calm   1.6 km/h 51% 0 mm
10:39 21.8 °C 10.9 °C 1018.2 hPa Calm   1.6 km/h 50% 0 mm
10:44 22.1 °C 11.5 °C 1018.2 hPa Calm   1.6 km/h 51% 0 mm
10:49 22.2 °C 11.6 °C 1017.8 hPa NNW 1.6 km/h 9.7 km/h 51% 0 mm
10:54 22.2 °C 9.7 °C 1017.8 hPa Calm   9.7 km/h 45% 0 mm
10:59 22.1 °C 10.9 °C 1017.8 hPa Calm   1.6 km/h 49% 0 mm
11:04 21.9 °C 11.1 °C 1017.8 hPa Calm   1.6 km/h 50% 0 mm
11:09 22.2 °C 10.7 °C 1017.8 hPa ESE 1.6 km/h 8 km/h 48% 0 mm
11:14 22.6 °C 10.7 °C 1017.8 hPa Calm   8 km/h 47% 0 mm
11:19 22.7 °C 10.8 °C 1017.8 hPa ESE 1.6 km/h 8 km/h 47% 0 mm
11:24 22.7 °C 9.8 °C 1017.8 hPa NNE 3.2 km/h 11.3 km/h 44% 0 mm
11:29 22.5 °C 9.3 °C 1017.8 hPa Calm   11.3 km/h 43% 0 mm
11:34 22.5 °C 9.3 °C 1017.8 hPa Calm   8 km/h 43% 0 mm
11:39 22.7 °C 9.4 °C 1018.2 hPa Calm   1.6 km/h 43% 0 mm
11:44 22.9 °C 9.7 °C 1017.8 hPa Calm   1.6 km/h 43% 0 mm
11:49 22.9 °C 10 °C 1018.2 hPa Calm   1.6 km/h 44% 0 mm
11:54 22.8 °C 9.6 °C 1018.2 hPa Calm     43% 0 mm
11:59 22.9 °C 9.3 °C 1018.2 hPa Calm   1.6 km/h 42% 0 mm
12:04 23.2 °C 10.6 °C 1018.2 hPa Calm   1.6 km/h 45% 0 mm
12:09 23.3 °C 9.3 °C 1017.8 hPa NNE 3.2 km/h 11.3 km/h 41% 0 mm
12:14 23.3 °C 9.7 °C 1017.8 hPa Calm   11.3 km/h 42% 0 mm
12:19 23.2 °C 10.3 °C 1017.8 hPa Calm   1.6 km/h 44% 0 mm
12:24 23.2 °C 8.9 °C 1017.5 hPa Calm   1.6 km/h 40% 0 mm
12:29 23.4 °C 10.4 °C 1017.5 hPa Calm   1.6 km/h 44% 0 mm
12:34 23.6 °C 9.6 °C 1017.5 hPa Calm   8 km/h 41% 0 mm
12:39 23.5 °C 9.1 °C 1017.5 hPa Calm   8 km/h 40% 0 mm
12:44 23.4 °C 10.2 °C 1017.5 hPa Calm   1.6 km/h 43% 0 mm
12:49 23.7 °C 10.7 °C 1017.2 hPa Calm     44% 0 mm
12:54 23.7 °C 9.3 °C 1017.2 hPa Calm   11.3 km/h 40% 0 mm
12:59 23.6 °C 9.6 °C 1017.2 hPa Calm   11.3 km/h 41% 0 mm
13:04 23.8 °C 10.4 °C 1017.2 hPa Calm   4.8 km/h 43% 0 mm
13:09 24 °C 9.6 °C 1017.2 hPa Calm   8 km/h 40% 0 mm
13:14 24.2 °C 10.2 °C 1017.2 hPa North 3.2 km/h 8 km/h 41% 0 mm
13:19 24.4 °C 10.3 °C 1017.2 hPa Calm   8 km/h 41% 0 mm
13:24 24.3 °C 9.5 °C 1017.2 hPa Calm   1.6 km/h 39% 0 mm
13:29 24.2 °C 10.8 °C 1017.2 hPa Calm   6.4 km/h 43% 0 mm
13:34 24.2 °C 9.4 °C 1016.8 hPa Calm   6.4 km/h 39% 0 mm
13:39 24.3 °C 9.1 °C 1017.2 hPa Calm   1.6 km/h 38% 0 mm
13:44 24.4 °C 8.8 °C 1016.8 hPa NE 3.2 km/h 12.9 km/h 37% 0 mm
13:49 24.5 °C 9.7 °C 1016.8 hPa ESE 1.6 km/h 12.9 km/h 39% 0 mm
13:54 24.4 °C 10.3 °C 1016.8 hPa Calm   8 km/h 41% 0 mm
13:59 24.6 °C 9.7 °C 1016.8 hPa NW 1.6 km/h 9.7 km/h 39% 0 mm
14:04 24.6 °C 10.9 °C 1016.8 hPa Calm   9.7 km/h 42% 0 mm
14:09 24.5 °C 8.9 °C 1016.8 hPa Calm   9.7 km/h 37% 0 mm
14:19 24.9 °C 11.2 °C 1016.5 hPa WNW 1.6 km/h 8 km/h 42% 0 mm
14:24 25 °C 12.3 °C 1016.5 hPa WNW 1.6 km/h 11.3 km/h 45% 0 mm
14:29 24.6 °C 12.2 °C 1016.5 hPa Calm   11.3 km/h 46% 0 mm
14:34 24.4 °C 12.7 °C 1016.5 hPa Calm   9.7 km/h 48% 0 mm
14:39 24.7 °C 13.3 °C 1016.5 hPa Calm   4.8 km/h 49% 0 mm
14:44 25.2 °C 14.6 °C 1016.5 hPa Calm   4.8 km/h 52% 0 mm
14:49 24.9 °C 12.2 °C 1016.5 hPa Calm   9.7 km/h 45% 0 mm
14:54 24.7 °C 13.6 °C 1016.5 hPa Calm   9.7 km/h 50% 0 mm
14:59 24.7 °C 12.3 °C 1016.5 hPa Calm   6.4 km/h 46% 0 mm
15:04 24.4 °C 12.4 °C 1016.5 hPa NW 1.6 km/h 12.9 km/h 47% 0 mm
15:09 24 °C 14.7 °C 1016.1 hPa Calm   12.9 km/h 56% 0 mm
15:14 24.1 °C 13.1 °C 1016.1 hPa Calm   4.8 km/h 50% 0 mm
15:19 24.3 °C 12.3 °C 1016.1 hPa NW 4.8 km/h 11.3 km/h 47% 0 mm
15:24 24.1 °C 12.4 °C 1016.1 hPa NW 3.2 km/h 11.3 km/h 48% 0 mm
15:29 24.5 °C 13.4 °C 1016.1 hPa Calm   8 km/h 50% 0 mm
15:34 25.1 °C 13.6 °C 1016.5 hPa Calm   3.2 km/h 49% 0 mm
15:39 24.9 °C 12.9 °C 1016.1 hPa Calm   11.3 km/h 47% 0 mm
15:49 24.3 °C 12.9 °C 1016.1 hPa WNW 6.4 km/h 11.3 km/h 49% 0 mm
15:54 23.8 °C 12.1 °C 1016.1 hPa NW 9.7 km/h 20.9 km/h 48% 0 mm
15:59 23.5 °C 12.5 °C 1016.1 hPa NW 4.8 km/h 20.9 km/h 50% 0 mm
16:04 23.4 °C 13.3 °C 1016.1 hPa NW 4.8 km/h 12.9 km/h 53% 0 mm
16:09 23.2 °C 12.6 °C 1016.1 hPa NW 8 km/h 12.9 km/h 51% 0 mm
16:14 23.5 °C 12.2 °C 1016.1 hPa NW 9.7 km/h 19.3 km/h 49% 0 mm
16:19 23.3 °C 12.3 °C 1016.1 hPa NW 6.4 km/h 19.3 km/h 50% 0 mm
16:24 23.2 °C 12.8 °C 1016.1 hPa Calm   16.1 km/h 52% 0 mm
16:29 23.6 °C 13.2 °C 1016.1 hPa NW 3.2 km/h 16.1 km/h 52% 0 mm
16:34 23.7 °C 13 °C 1015.8 hPa NW 4.8 km/h 16.1 km/h 51% 0 mm
16:39 23.7 °C 12.7 °C 1015.8 hPa WNW 6.4 km/h 16.1 km/h 50% 0 mm
16:44 24.1 °C 12.7 °C 1016.1 hPa NW 6.4 km/h 16.1 km/h 49% 0 mm
16:49 24.3 °C 13.2 °C 1015.8 hPa WNW 4.8 km/h 17.7 km/h 50% 0 mm
16:54 24.4 °C 12.7 °C 1016.1 hPa NW 6.4 km/h 17.7 km/h 48% 0 mm
16:59 23.9 °C 12.3 °C 1016.1 hPa NW 8 km/h 20.9 km/h 48% 0 mm
17:04 23.7 °C 12.9 °C 1015.8 hPa WNW 6.4 km/h 20.9 km/h 51% 0 mm
17:09 23.6 °C 13.2 °C 1016.1 hPa WNW 1.6 km/h 12.9 km/h 52% 0 mm
17:14 23.8 °C 13.1 °C 1016.1 hPa WNW 6.4 km/h 12.9 km/h 51% 0 mm
17:19 23.6 °C 12.3 °C 1016.1 hPa NW 9.7 km/h 16.1 km/h 49% 0 mm
17:24 23.4 °C 12.1 °C 1016.1 hPa WNW 6.4 km/h 16.1 km/h 49% 0 mm
17:29 23.6 °C 12.9 °C 1016.1 hPa NW 6.4 km/h 12.9 km/h 51% 0 mm
17:34 23.8 °C 13.4 °C 1016.1 hPa NW 4.8 km/h 11.3 km/h 52% 0 mm
17:39 23.8 °C 13.3 °C 1016.1 hPa WNW 3.2 km/h 14.5 km/h 52% 0 mm
17:44 23.9 °C 12.8 °C 1015.8 hPa WNW 4.8 km/h 14.5 km/h 50% 0 mm
17:49 24 °C 12.9 °C 1015.8 hPa Calm   11.3 km/h 50% 0 mm
17:54 24.3 °C 12.6 °C 1015.8 hPa Calm   8 km/h 48% 0 mm
17:59 24.5 °C 13.4 °C 1015.8 hPa Calm   4.8 km/h 50% 0 mm
18:04 24.4 °C 12.1 °C 1015.8 hPa NE 1.6 km/h 9.7 km/h 46% 0 mm
18:09 24.2 °C 11.8 °C 1015.8 hPa NNE 1.6 km/h 9.7 km/h 46% 0 mm
18:14 24.2 °C 13.4 °C 1015.8 hPa Calm   6.4 km/h 51% 0 mm
18:19 24.2 °C 12.8 °C 1015.8 hPa Calm   3.2 km/h 49% 0 mm
18:24 24.2 °C 12.2 °C 1016.1 hPa Calm   4.8 km/h 47% 0 mm
18:29 24.1 °C 12.1 °C 1016.1 hPa NNE 1.6 km/h 8 km/h 47% 0 mm
18:39 23.8 °C 13.1 °C 1016.1 hPa Calm   3.2 km/h 51% 0 mm
18:44 23.7 °C 12.9 °C 1016.1 hPa Calm   4.8 km/h 51% 0 mm
18:49 23.5 °C 12.5 °C 1016.1 hPa Calm   4.8 km/h 50% 0 mm
18:54 23.3 °C 13.5 °C 1016.1 hPa Calm   3.2 km/h 54% 0 mm
18:59 23.2 °C 12.8 °C 1016.1 hPa Calm   1.6 km/h 52% 0 mm
19:04 22.9 °C 12.8 °C 1016.1 hPa Calm   3.2 km/h 53% 0 mm
19:09 22.7 °C 12.7 °C 1016.1 hPa Calm   3.2 km/h 53% 0 mm
19:14 22.6 °C 12.6 °C 1016.1 hPa Calm     53% 0 mm
19:19 22.3 °C 12.6 °C 1016.1 hPa Calm   3.2 km/h 54% 0 mm
19:24 22.2 °C 12.7 °C 1016.1 hPa Calm   3.2 km/h 55% 0 mm
19:29 21.9 °C 12.4 °C 1016.1 hPa Calm   1.6 km/h 55% 0 mm
19:39 21.4 °C 12.3 °C 1016.1 hPa Calm     56% 0 mm
19:44 21.3 °C 12.4 °C 1016.1 hPa Calm     57% 0 mm
19:49 21.1 °C 12.7 °C 1016.1 hPa Calm     59% 0 mm
19:54 20.8 °C 13 °C 1016.1 hPa Calm   1.6 km/h 61% 0 mm
19:59 20.4 °C 12.2 °C 1016.1 hPa Calm   6.4 km/h 59% 0 mm
20:04 20.3 °C 12.8 °C 1016.1 hPa Calm   6.4 km/h 62% 0 mm
20:09 19.9 °C 12.7 °C 1016.1 hPa Calm     63% 0 mm
20:14 19.5 °C 12.3 °C 1016.1 hPa Calm     63% 0 mm
20:19 19.1 °C 12.3 °C 1016.1 hPa Calm     65% 0 mm
20:29 17.9 °C 11.9 °C 1016.1 hPa Calm     68% 0 mm
20:34 17.3 °C 11.6 °C 1016.1 hPa Calm     69% 0 mm
20:39 16.7 °C 11.2 °C 1016.1 hPa Calm     70% 0 mm
20:49 15.5 °C 10.7 °C 1016.5 hPa Calm     73% 0 mm
20:59 14.8 °C 10.4 °C 1016.5 hPa Calm     75% 0 mm
21:04 14.5 °C 10.3 °C 1016.5 hPa Calm     76% 0 mm
21:09 14.3 °C 10.1 °C 1016.5 hPa Calm     76% 0 mm
21:14 14.2 °C 10.2 °C 1016.5 hPa Calm     77% 0 mm
21:19 13.9 °C 10.2 °C 1016.5 hPa Calm     78% 0 mm
21:24 13.8 °C 10 °C 1016.5 hPa Calm     78% 0 mm
21:30 13.7 °C 10.1 °C 1016.5 hPa Calm     79% 0 mm
21:39 13.3 °C 9.9 °C 1016.8 hPa Calm     80% 0 mm
21:44 13.2 °C 9.8 °C 1016.8 hPa Calm     80% 0 mm
21:49 13.1 °C 9.9 °C 1016.8 hPa Calm     81% 0 mm
21:54 12.9 °C 9.8 °C 1016.8 hPa Calm     81% 0 mm
21:59 12.8 °C 9.8 °C 1016.8 hPa Calm     82% 0 mm
22:04 12.7 °C 9.7 °C 1016.8 hPa Calm     82% 0 mm
22:09 12.6 °C 9.6 °C 1016.8 hPa Calm     82% 0 mm
22:14 12.4 °C 9.6 °C 1016.8 hPa Calm     83% 0 mm
22:19 12.3 °C 9.6 °C 1016.8 hPa Calm     83% 0 mm
22:24 12.2 °C 9.6 °C 1016.8 hPa Calm     84% 0 mm
22:34 12 °C 9.4 °C 1016.8 hPa Calm     84% 0 mm
22:44 11.8 °C 9.4 °C 1016.8 hPa Calm     85% 0 mm
22:49 11.8 °C 9.4 °C 1016.8 hPa Calm     85% 0 mm
22:54 11.8 °C 9.5 °C 1016.8 hPa Calm     86% 0 mm
22:59 11.8 °C 9.5 °C 1016.8 hPa Calm     86% 0 mm
23:04 11.8 °C 9.5 °C 1016.8 hPa Calm     86% 0 mm
23:09 11.7 °C 9.4 °C 1016.8 hPa Calm     86% 0 mm
23:14 11.7 °C 9.6 °C 1016.8 hPa Calm     87% 0 mm
23:19 11.8 °C 9.7 °C 1016.8 hPa Calm     87% 0 mm
23:24 11.8 °C 9.7 °C 1016.8 hPa Calm     87% 0 mm
23:29 11.7 °C 9.6 °C 1016.8 hPa Calm     87% 0 mm
23:34 11.7 °C 9.6 °C 1016.8 hPa Calm     87% 0 mm
23:39 11.7 °C 9.6 °C 1016.8 hPa Calm     87% 0 mm
23:44 11.6 °C 9.5 °C 1016.5 hPa Calm     87% 0 mm
23:49 11.6 °C 9.6 °C 1016.5 hPa Calm     88% 0 mm
23:54 11.5 °C 9.6 °C 1016.5 hPa Calm     88% 0 mm
23:59 11.3 °C 9.4 °C 1016.8 hPa Calm     88% 0 mm
Westford Weather
Compliments of Weather Underground

 
 
Current Radar Loop:

Copyright © WestfordWeather.net 2007-2014. All rights reserved.